Terminal Aerodrome Forecast
Issued by NWS

Home | Current Version | Previous Version | Graphics & Text | Print | Product List | Glossary On
Versions: 1 2 3 4 5 6 7 8 9 10 11 12 13 14 15 16 17 18 19 20 21 22 23 24 25 26 27 28 29 30 31 32 33 34 35 36 37
000
FTUS43 KLOT 251700
TAFORD
TAF
KORD 251737Z 2518/2624 04018G27KT 4SM -SN BR OVC010
      TEMPO 2518/2520 2SM -SN BR
     FM252200 04016G24KT P6SM -SN OVC020
     FM260300 03012G18KT P6SM BKN025
     FM260700 02004KT P6SM SCT025
     FM261400 23006KT P6SM FEW025 BKN080
     FM261900 19008KT P6SM OVC025 PROB30 2621/2624 2SM -SN OVC015=

USA.gov is the U.S. government's official web portal to all federal, state and local government web resources and services.